createdAt,value
2017-12-31T00:01:03.950Z,96275.03
2017-12-31T00:03:31.515Z,96276.30
2017-12-31T00:05:59.105Z,96289.83
2017-12-31T00:08:26.729Z,96287.28
2017-12-31T00:10:54.297Z,96283.89
2017-12-31T00:13:29.177Z,96299.97
2017-12-31T00:15:56.814Z,96287.69
2017-12-31T00:18:24.398Z,96295.73
2017-12-31T00:20:52.080Z,96298.27
2017-12-31T00:23:19.666Z,96295.72
2017-12-31T00:25:47.245Z,96309.68
2017-12-31T00:28:14.814Z,96315.58
2017-12-31T00:30:42.415Z,96303.77
2017-12-31T00:33:09.990Z,96310.52
2017-12-31T00:35:37.640Z,96304.19
2017-12-31T00:38:05.204Z,96301.66
2017-12-31T00:40:32.813Z,96303.78
2017-12-31T00:43:00.401Z,96309.69
2017-12-31T00:45:27.985Z,96301.22
2017-12-31T00:47:59.445Z,96308.00
2017-12-31T00:50:27.012Z,96315.18
2017-12-31T00:52:54.614Z,96310.95
2017-12-31T00:55:22.228Z,96308.41
2017-12-31T00:57:55.498Z,96310.53
2017-12-31T01:00:23.075Z,96305.87
2017-12-31T01:02:50.641Z,96305.45
2017-12-31T01:05:18.260Z,96324.91
2017-12-31T01:07:45.911Z,96305.47
2017-12-31T01:10:13.460Z,96309.67
2017-12-31T01:12:44.789Z,96316.88
2017-12-31T01:15:12.360Z,96337.99
2017-12-31T01:17:39.996Z,96330.39
2017-12-31T01:20:07.566Z,96333.78
2017-12-31T01:22:41.592Z,96336.31
2017-12-31T01:25:09.515Z,96348.16
2017-12-31T01:27:37.069Z,96340.12
2017-12-31T01:30:04.637Z,96359.56
2017-12-31T01:32:32.221Z,96346.03
2017-12-31T01:34:59.796Z,96366.33
2017-12-31T01:37:30.666Z,96376.05
2017-12-31T01:39:58.254Z,96359.16
2017-12-31T01:42:25.810Z,96368.86
2017-12-31T01:44:53.399Z,96379.42
2017-12-31T01:47:20.951Z,96384.52
2017-12-31T01:49:48.507Z,96375.20
2017-12-31T01:52:16.077Z,96370.55
2017-12-31T01:54:43.641Z,96378.16
2017-12-31T01:57:11.279Z,96389.16
2017-12-31T01:59:38.844Z,96383.25
2017-12-31T02:02:06.427Z,96390.84
2017-12-31T02:04:34.024Z,96379.42
2017-12-31T02:07:01.599Z,96392.53
2017-12-31T02:09:29.146Z,96387.46
2017-12-31T02:12:10.306Z,96398.47
2017-12-31T02:14:44.054Z,96409.45
2017-12-31T02:17:11.982Z,96406.92
2017-12-31T02:19:39.542Z,96401.02
2017-12-31T02:22:08.860Z,96398.45
2017-12-31T02:24:36.480Z,96412.84
2017-12-31T02:27:04.060Z,96411.58
2017-12-31T02:29:31.632Z,96406.91
2017-12-31T02:31:59.190Z,96415.38
2017-12-31T02:34:26.782Z,96418.77
2017-12-31T02:36:54.340Z,96420.45
2017-12-31T02:39:21.921Z,96424.66
2017-12-31T02:41:49.492Z,96429.33
2017-12-31T02:44:17.057Z,96431.42
2017-12-31T02:46:44.610Z,96430.59
2017-12-31T02:49:12.182Z,96444.94
2017-12-31T02:51:42.389Z,96440.72
2017-12-31T02:54:12.042Z,96458.48
2017-12-31T02:56:39.623Z,96444.91
2017-12-31T02:59:07.184Z,96442.80
2017-12-31T03:01:35.125Z,96445.77
2017-12-31T03:04:02.693Z,96450.44
2017-12-31T03:06:30.273Z,96447.89
2017-12-31T03:09:04.512Z,96449.16
2017-12-31T03:11:32.490Z,96461.03
2017-12-31T03:14:00.075Z,96456.39
2017-12-31T03:16:27.654Z,96449.61
2017-12-31T03:18:55.230Z,96455.97
2017-12-31T03:21:22.770Z,96461.05
2017-12-31T03:23:50.379Z,96454.70
2017-12-31T03:26:17.972Z,96461.88
2017-12-31T03:28:45.559Z,96468.64
2017-12-31T03:31:13.113Z,96474.55
2017-12-31T03:33:40.706Z,96462.70
2017-12-31T03:36:10.116Z,96477.91
2017-12-31T03:38:37.662Z,96492.31
2017-12-31T03:41:05.253Z,96495.25
2017-12-31T03:43:32.873Z,96499.03
2017-12-31T03:46:00.448Z,96506.64
2017-12-31T03:48:27.995Z,96504.92
2017-12-31T03:50:55.563Z,96501.11
2017-12-31T03:53:23.127Z,96508.70
2017-12-31T03:55:50.730Z,96506.59
2017-12-31T03:58:18.308Z,96513.34
2017-12-31T04:00:45.904Z,96511.66
2017-12-31T04:03:14.300Z,96517.55
2017-12-31T04:05:41.908Z,96513.31
2017-12-31T04:08:12.218Z,96515.84
2017-12-31T04:10:39.826Z,96514.16
2017-12-31T04:13:07.386Z,96509.09
2017-12-31T04:15:34.932Z,96509.92
2017-12-31T04:18:02.624Z,96516.27
2017-12-31T04:20:30.194Z,96514.18
2017-12-31T04:23:01.336Z,96509.95
2017-12-31T04:25:28.890Z,96517.55
2017-12-31T04:27:56.504Z,96514.58
2017-12-31T04:30:24.056Z,96515.38
2017-12-31T04:32:52.100Z,96515.76
2017-12-31T04:35:22.067Z,96506.87
2017-12-31T04:37:49.641Z,96514.08
2017-12-31T04:40:17.188Z,96516.20
2017-12-31T04:42:44.788Z,96512.75
2017-12-31T04:45:13.082Z,96512.32
2017-12-31T04:47:40.646Z,96508.59
2017-12-31T04:50:08.214Z,96504.80
2017-12-31T04:52:35.765Z,96516.19
2017-12-31T04:55:07.006Z,96511.91
2017-12-31T04:57:34.572Z,96502.18
2017-12-31T05:00:02.163Z,96503.86
2017-12-31T05:02:29.734Z,96517.47
2017-12-31T05:04:57.312Z,96522.97
2017-12-31T05:07:24.862Z,96517.39
2017-12-31T05:09:53.065Z,96522.03
2017-12-31T05:12:27.111Z,96524.59
2017-12-31T05:14:54.706Z,96523.79
2017-12-31T05:17:22.296Z,96536.50
2017-12-31T05:19:49.912Z,96542.86
2017-12-31T05:22:25.322Z,96538.61
2017-12-31T05:24:52.921Z,96535.26
2017-12-31T05:27:20.493Z,96538.22
2017-12-31T05:29:48.090Z,96541.62
2017-12-31T05:32:15.666Z,96534.44
2017-12-31T05:34:43.232Z,96542.88
2017-12-31T05:37:10.834Z,96545.84
2017-12-31T05:39:38.394Z,96539.94
2017-12-31T05:42:05.961Z,96550.05
2017-12-31T05:44:33.528Z,96547.55
2017-12-31T05:47:01.104Z,96555.16
2017-12-31T05:49:28.922Z,96567.86
2017-12-31T05:51:58.222Z,96562.42
2017-12-31T05:54:25.835Z,96561.59
2017-12-31T05:56:53.370Z,96567.94
2017-12-31T05:59:20.949Z,96558.62
2017-12-31T06:01:48.490Z,96570.94
2017-12-31T06:04:16.084Z,96570.52
2017-12-31T06:06:46.686Z,96574.35
2017-12-31T06:09:14.254Z,96572.64
2017-12-31T06:11:41.818Z,96580.25
2017-12-31T06:14:15.636Z,96583.22
2017-12-31T06:16:43.216Z,96573.06
2017-12-31T06:19:12.602Z,96589.18
2017-12-31T06:21:40.164Z,96586.64
2017-12-31T06:24:07.894Z,96593.39
2017-12-31T06:26:35.468Z,96581.55
2017-12-31T06:29:03.045Z,96595.91
2017-12-31T06:31:30.616Z,96586.18
2017-12-31T06:33:58.184Z,96582.42
2017-12-31T06:36:27.392Z,96580.73
2017-12-31T06:38:54.973Z,96584.93
2017-12-31T06:41:29.944Z,96576.91
2017-12-31T06:43:57.498Z,96586.22
2017-12-31T06:46:25.388Z,96592.97
2017-12-31T06:48:53.080Z,96595.95
2017-12-31T06:51:20.651Z,96596.79
2017-12-31T06:53:48.245Z,96601.01
2017-12-31T06:56:15.785Z,96605.69
2017-12-31T06:58:43.505Z,96604.83
2017-12-31T07:01:11.113Z,96612.05
2017-12-31T07:03:38.703Z,96618.80
2017-12-31T07:06:06.268Z,96618.80
2017-12-31T07:08:43.538Z,96613.30
2017-12-31T07:11:13.987Z,96618.78
2017-12-31T07:13:41.677Z,96612.88
2017-12-31T07:18:54.122Z,96619.23
2017-12-31T07:21:21.883Z,96628.09
2017-12-31T07:23:50.409Z,96634.85
2017-12-31T07:26:18.015Z,96630.66
2017-12-31T07:28:46.531Z,96633.20
2017-12-31T07:31:14.307Z,96642.50
2017-12-31T07:33:41.975Z,96650.11
2017-12-31T07:36:09.746Z,96650.52
2017-12-31T07:38:37.419Z,96648.39
2017-12-31T07:41:05.109Z,96650.11
2017-12-31T07:43:32.739Z,96648.86
2017-12-31T07:46:00.447Z,96653.52
2017-12-31T07:48:28.168Z,96655.23
2017-12-31T07:50:58.537Z,96656.92
2017-12-31T07:53:26.255Z,96660.30
2017-12-31T07:55:53.946Z,96668.77
2017-12-31T07:58:21.661Z,96664.55
2017-12-31T08:00:50.982Z,96660.77
2017-12-31T08:03:19.378Z,96670.88
2017-12-31T08:05:47.027Z,96671.70
2017-12-31T08:08:14.741Z,96667.48
2017-12-31T08:10:45.179Z,96670.03
2017-12-31T08:13:12.991Z,96665.83
2017-12-31T08:15:40.663Z,96678.11
2017-12-31T08:18:08.450Z,96681.89
2017-12-31T08:20:36.198Z,96685.27
2017-12-31T08:23:03.990Z,96677.63
2017-12-31T08:25:31.653Z,96686.56
2017-12-31T08:27:59.395Z,96686.58
2017-12-31T08:30:27.803Z,96688.70
2017-12-31T08:32:55.484Z,96692.12
2017-12-31T08:35:23.140Z,96675.63
2017-12-31T08:37:51.487Z,96684.95
2017-12-31T08:40:20.103Z,96691.30
2017-12-31T08:42:47.683Z,96693.41
2017-12-31T08:45:15.364Z,96700.13
2017-12-31T08:47:44.783Z,96700.11
2017-12-31T08:50:13.266Z,96702.20
2017-12-31T08:52:41.072Z,96710.67
2017-12-31T08:55:09.513Z,96716.57
2017-12-31T08:57:37.200Z,96709.39
2017-12-31T09:00:04.886Z,96714.07
2017-12-31T09:02:32.541Z,96720.08
2017-12-31T09:05:00.271Z,96710.38
2017-12-31T09:10:07.522Z,96712.16
2017-12-31T09:12:35.255Z,96718.05
2017-12-31T09:15:03.813Z,96712.97
2017-12-31T09:17:31.622Z,96721.84
2017-12-31T09:20:01.891Z,96716.34
2017-12-31T09:22:29.665Z,96709.63
2017-12-31T09:24:57.348Z,96700.34
2017-12-31T09:27:27.827Z,96706.27
2017-12-31T09:29:56.686Z,96710.92
2017-12-31T09:32:24.372Z,96704.58
2017-12-31T09:34:52.122Z,96702.89
2017-12-31T09:37:21.576Z,96706.27
2017-12-31T09:39:49.319Z,96705.85
2017-12-31T09:42:16.984Z,96709.65
2017-12-31T09:44:44.674Z,96696.05
2017-12-31T09:47:12.443Z,96690.09
2017-12-31T09:49:40.125Z,96682.88
2017-12-31T09:52:07.811Z,96678.61
2017-12-31T09:54:37.521Z,96673.96
2017-12-31T09:57:05.308Z,96676.06
2017-12-31T09:59:33.007Z,96659.50
2017-12-31T10:02:00.644Z,96670.93
2017-12-31T10:04:29.107Z,96674.30
2017-12-31T10:06:56.885Z,96673.03
2017-12-31T10:09:24.548Z,96670.89
2017-12-31T10:11:52.263Z,96660.27
2017-12-31T10:14:19.990Z,96656.51
2017-12-31T10:16:47.763Z,96652.25
2017-12-31T10:19:15.415Z,96659.03
2017-12-31T10:21:43.057Z,96653.98
2017-12-31T10:24:10.772Z,96658.64
2017-12-31T10:26:38.823Z,96663.78
2017-12-31T10:29:08.229Z,96663.79
2017-12-31T10:31:37.750Z,96640.46
2017-12-31T10:34:05.491Z,96646.84
2017-12-31T10:36:34.925Z,96637.09
2017-12-31T10:39:02.629Z,96647.28
2017-12-31T10:41:30.276Z,96642.63
2017-12-31T10:43:57.956Z,96641.78
2017-12-31T10:46:25.682Z,96641.33
2017-12-31T10:48:53.506Z,96634.16
2017-12-31T10:51:21.398Z,96642.15
2017-12-31T10:53:49.235Z,96622.22
2017-12-31T10:56:16.972Z,96625.15
2017-12-31T10:58:46.595Z,96623.42
2017-12-31T11:01:14.415Z,96623.44
2017-12-31T11:03:42.270Z,96618.33
2017-12-31T11:06:09.907Z,96611.98
2017-12-31T11:08:38.305Z,96609.01
2017-12-31T11:11:06.023Z,96622.20
2017-12-31T11:13:33.746Z,96614.97
2017-12-31T11:16:01.458Z,96604.80
2017-12-31T11:18:29.218Z,96604.78
2017-12-31T11:20:57.024Z,96597.98
2017-12-31T11:23:24.772Z,96603.95
2017-12-31T11:25:52.459Z,96598.00
2017-12-31T11:28:20.822Z,96589.09
2017-12-31T11:30:48.525Z,96585.67
2017-12-31T11:33:17.813Z,96575.44
2017-12-31T11:35:46.620Z,96571.19
2017-12-31T11:38:14.240Z,96566.06
2017-12-31T11:40:41.916Z,96556.30
2017-12-31T11:43:09.602Z,96566.92
2017-12-31T11:45:37.293Z,96555.91
2017-12-31T11:48:05.928Z,96561.41
2017-12-31T11:50:49.876Z,96572.48
2017-12-31T11:53:17.750Z,96563.97
2017-12-31T11:55:45.405Z,96568.64
2017-12-31T11:58:13.167Z,96567.80
2017-12-31T12:00:40.834Z,96567.38
2017-12-31T12:03:09.560Z,96566.17
2017-12-31T12:08:29.684Z,96567.48
2017-12-31T12:10:57.364Z,96562.84
2017-12-31T12:13:25.047Z,96564.58
2017-12-31T12:15:52.738Z,96560.34
2017-12-31T12:18:20.728Z,96556.09
2017-12-31T12:20:48.489Z,96564.56
2017-12-31T12:23:16.213Z,96562.05
2017-12-31T12:25:43.934Z,96556.98
2017-12-31T12:28:11.641Z,96542.55
2017-12-31T12:30:39.316Z,96548.48
2017-12-31T12:33:07.720Z,96542.98
2017-12-31T12:35:36.808Z,96535.35
2017-12-31T12:38:04.510Z,96534.52
2017-12-31T12:40:32.243Z,96540.87
2017-12-31T12:42:59.914Z,96531.98
2017-12-31T12:45:27.615Z,96527.73
2017-12-31T12:47:55.248Z,96513.72
2017-12-31T12:50:23.058Z,96514.58
2017-12-31T12:52:51.722Z,96515.40
2017-12-31T12:55:19.393Z,96503.95
2017-12-31T12:57:49.098Z,96503.08
2017-12-31T13:00:16.952Z,96500.13
2017-12-31T13:02:44.715Z,96493.80
2017-12-31T13:05:15.057Z,96503.11
2017-12-31T13:07:42.787Z,96487.43
2017-12-31T13:10:10.554Z,96486.61
2017-12-31T13:12:38.434Z,96490.84
2017-12-31T13:15:06.101Z,96495.48
2017-12-31T13:17:33.795Z,96497.19
2017-12-31T13:20:01.454Z,96484.88
2017-12-31T13:22:29.576Z,96486.61
2017-12-31T13:24:57.348Z,96494.67
2017-12-31T13:27:25.040Z,96480.29
2017-12-31T13:29:53.775Z,96491.28
2017-12-31T13:32:21.440Z,96473.06
2017-12-31T13:34:50.031Z,96469.66
2017-12-31T13:37:17.694Z,96464.98
2017-12-31T13:39:45.393Z,96470.50
2017-12-31T13:42:13.081Z,96472.16
2017-12-31T13:44:41.696Z,96461.16
2017-12-31T13:47:09.398Z,96459.03
2017-12-31T13:49:37.977Z,96459.00
2017-12-31T13:52:07.860Z,96453.86
2017-12-31T13:54:35.565Z,96453.82
2017-12-31T14:06:49.257Z,96443.25
2017-12-31T14:09:17.645Z,96437.29
2017-12-31T14:11:49.299Z,96441.93
2017-12-31T14:14:17.006Z,96440.63
2017-12-31T14:16:44.747Z,96438.91
2017-12-31T14:19:14.070Z,96432.52
2017-12-31T14:21:44.435Z,96430.41
2017-12-31T14:24:13.860Z,96429.57
2017-12-31T14:26:41.581Z,96424.14
2017-12-31T14:29:10.021Z,96422.88
2017-12-31T14:31:37.678Z,96412.28
2017-12-31T14:34:07.101Z,96412.76
2017-12-31T14:36:35.578Z,96407.70
2017-12-31T14:39:03.266Z,96396.25
2017-12-31T14:41:30.949Z,96389.48
2017-12-31T14:43:58.945Z,96396.73
2017-12-31T14:46:26.740Z,96391.27
2017-12-31T14:48:54.425Z,96391.29
2017-12-31T14:51:24.813Z,96382.84
2017-12-31T14:53:53.348Z,96379.92
2017-12-31T14:56:21.055Z,96379.91
2017-12-31T14:58:48.985Z,96379.10
2017-12-31T15:01:16.813Z,96382.94
2017-12-31T15:03:44.467Z,96377.89
2017-12-31T15:06:12.389Z,96377.50
2017-12-31T15:08:40.963Z,96369.08
2017-12-31T15:11:08.717Z,96372.02
2017-12-31T15:13:36.554Z,96369.09
2017-12-31T15:16:04.281Z,96372.90
2017-12-31T15:18:31.981Z,96357.27
2017-12-31T15:20:59.838Z,96368.31
2017-12-31T15:23:27.543Z,96365.78
2017-12-31T15:25:55.262Z,96372.13
2017-12-31T15:28:23.733Z,96360.27
2017-12-31T15:30:51.521Z,96362.82
2017-12-31T15:33:19.205Z,96356.47
2017-12-31T15:35:47.052Z,96357.73
2017-12-31T15:38:14.729Z,96363.69
2017-12-31T15:40:42.419Z,96359.91
2017-12-31T15:43:12.907Z,96364.97
2017-12-31T15:45:40.676Z,96368.37
2017-12-31T15:48:08.353Z,96365.84
2017-12-31T15:50:37.664Z,96356.98
2017-12-31T15:53:05.439Z,96360.81
2017-12-31T15:55:34.860Z,96367.16
2017-12-31T15:58:02.582Z,96361.25
2017-12-31T16:00:32.913Z,96359.97
2017-12-31T16:03:02.404Z,96348.13
2017-12-31T16:05:30.121Z,96347.73
2017-12-31T16:07:57.771Z,96345.62
2017-12-31T16:10:26.225Z,96342.64
2017-12-31T16:12:53.893Z,96344.75
2017-12-31T16:15:23.189Z,96340.55
2017-12-31T16:17:50.936Z,96342.22
2017-12-31T16:20:18.615Z,96335.03
2017-12-31T16:22:49.099Z,96338.42
2017-12-31T16:25:20.407Z,96338.00
2017-12-31T16:27:48.899Z,96328.69
2017-12-31T16:30:16.619Z,96324.88
2017-12-31T16:32:44.386Z,96319.36
2017-12-31T16:35:13.680Z,96318.48
2017-12-31T16:37:41.413Z,96317.19
2017-12-31T16:40:09.266Z,96318.86
2017-12-31T16:42:39.864Z,96320.95
2017-12-31T16:45:11.964Z,96321.37
2017-12-31T16:47:41.571Z,96317.53
2017-12-31T16:50:09.231Z,96322.58
2017-12-31T16:52:37.913Z,96323.81
2017-12-31T16:55:07.326Z,96317.45
2017-12-31T16:57:35.048Z,96309.83
2017-12-31T17:00:04.693Z,96313.64
2017-12-31T17:02:32.430Z,96311.98
2017-12-31T17:05:00.079Z,96296.78
2017-12-31T17:07:29.610Z,96301.40
2017-12-31T17:09:59.996Z,96299.68
2017-12-31T17:12:30.264Z,96292.48
2017-12-31T17:14:58.102Z,96290.35
2017-12-31T17:17:29.947Z,96281.06
2017-12-31T17:19:57.721Z,96276.88
2017-12-31T17:22:25.373Z,96277.27
2017-12-31T17:24:55.725Z,96282.33
2017-12-31T17:27:23.451Z,96284.82
2017-12-31T17:29:51.245Z,96289.03
2017-12-31T17:32:18.881Z,96286.01
2017-12-31T17:34:46.581Z,96283.89
2017-12-31T17:37:15.801Z,96272.88
2017-12-31T17:39:43.543Z,96276.66
2017-12-31T17:42:11.924Z,96272.80
2017-12-31T17:44:39.610Z,96265.61
2017-12-31T17:47:08.885Z,96272.75
2017-12-31T17:49:36.593Z,96268.91
2017-12-31T17:52:04.235Z,96263.44
2017-12-31T17:54:31.954Z,96262.55
2017-12-31T17:56:59.602Z,96266.75
2017-12-31T17:59:27.346Z,96265.84
2017-12-31T18:01:56.870Z,96264.53
2017-12-31T18:04:25.320Z,96269.12
2017-12-31T18:06:52.953Z,96261.85
2017-12-31T18:09:20.676Z,96257.57
2017-12-31T18:11:48.334Z,96248.69
2017-12-31T18:14:15.974Z,96247.34
2017-12-31T18:16:43.787Z,96243.09
2017-12-31T18:19:11.427Z,96244.75
2017-12-31T18:21:40.261Z,96244.33
2017-12-31T18:24:07.942Z,96242.67
2017-12-31T18:26:35.612Z,96249.39
2017-12-31T18:29:03.317Z,96247.69
2017-12-31T18:31:30.969Z,96247.27
2017-12-31T18:33:58.662Z,96247.66
2017-12-31T18:36:28.224Z,96240.91
2017-12-31T18:38:55.926Z,96235.45
2017-12-31T18:41:23.761Z,96239.61
2017-12-31T18:43:51.440Z,96233.27
2017-12-31T18:46:19.071Z,96229.09
2017-12-31T18:48:46.893Z,96223.60
2017-12-31T18:51:14.584Z,96227.81
2017-12-31T18:53:42.413Z,96225.73
2017-12-31T18:56:10.373Z,96222.38
2017-12-31T18:58:38.026Z,96209.73
2017-12-31T19:01:07.548Z,96207.22
2017-12-31T19:03:37.022Z,96194.19
2017-12-31T19:06:04.722Z,96191.23
2017-12-31T19:08:34.076Z,96195.03
2017-12-31T19:11:01.817Z,96197.55
2017-12-31T19:13:31.178Z,96191.64
2017-12-31T19:16:00.638Z,96191.21
2017-12-31T19:18:29.112Z,96189.92
2017-12-31T19:20:56.776Z,96184.00
2017-12-31T19:23:24.411Z,96181.00
2017-12-31T19:25:52.278Z,96177.13
2017-12-31T19:28:20.078Z,96174.92
2017-12-31T19:30:50.373Z,96166.83
2017-12-31T19:33:18.288Z,96166.73
2017-12-31T19:35:47.504Z,96164.58
2017-12-31T19:38:16.084Z,96173.74
2017-12-31T19:40:43.774Z,96151.81
2017-12-31T19:43:11.434Z,96151.72
2017-12-31T19:45:39.075Z,96140.71
2017-12-31T19:48:07.445Z,96138.95
2017-12-31T19:50:35.198Z,96147.22
2017-12-31T19:53:03.008Z,96150.09
2017-12-31T19:55:30.830Z,96151.64
2017-12-31T19:57:58.513Z,96153.66
2017-12-31T20:00:28.919Z,96146.85
2017-12-31T20:02:56.670Z,96135.38
2017-12-31T20:05:24.336Z,96128.97
2017-12-31T20:07:51.994Z,96118.48
2017-12-31T20:10:19.742Z,96111.78
2017-12-31T20:12:47.456Z,96119.76
2017-12-31T20:15:15.168Z,96109.69
2017-12-31T20:17:42.852Z,96103.34
2017-12-31T20:20:10.746Z,96107.05
2017-12-31T20:22:38.444Z,96101.53
2017-12-31T20:25:06.951Z,96105.64
2017-12-31T20:27:36.469Z,96110.17
2017-12-31T20:30:04.333Z,96109.22
2017-12-31T20:32:32.372Z,96122.97
2017-12-31T20:35:01.194Z,96119.61
2017-12-31T20:37:28.861Z,96111.57
2017-12-31T20:39:56.558Z,96124.14
2017-12-31T20:42:24.306Z,96116.06
2017-12-31T20:44:51.966Z,96120.23
2017-12-31T20:47:22.414Z,96123.09
2017-12-31T20:49:50.152Z,96131.83
2017-12-31T20:52:17.908Z,96140.59
2017-12-31T20:54:45.553Z,96144.37
2017-12-31T20:57:13.290Z,96139.64
2017-12-31T20:59:41.033Z,96141.23
2017-12-31T21:02:08.752Z,96147.94
2017-12-31T21:04:36.408Z,96153.79
2017-12-31T21:07:04.735Z,96146.25
2017-12-31T21:09:33.206Z,96152.89
2017-12-31T21:12:00.882Z,96157.90
2017-12-31T21:14:28.567Z,96155.30
2017-12-31T21:16:56.294Z,96156.36
2017-12-31T21:19:24.698Z,96157.91
2017-12-31T21:21:52.576Z,96160.70
2017-12-31T21:24:20.346Z,96152.70
2017-12-31T21:26:48.821Z,96151.08
2017-12-31T21:29:16.574Z,96154.88
2017-12-31T21:31:44.264Z,96154.47
2017-12-31T21:34:11.975Z,96149.05
2017-12-31T21:36:39.790Z,96151.08
2017-12-31T21:39:07.405Z,96151.08
2017-12-31T21:41:37.790Z,96158.60
2017-12-31T21:44:05.466Z,96149.38
2017-12-31T21:46:33.176Z,96143.14
2017-12-31T21:49:03.466Z,96143.56
2017-12-31T21:51:31.194Z,96132.23
2017-12-31T21:54:01.168Z,96131.31
2017-12-31T21:56:28.936Z,96134.10
2017-12-31T21:58:57.581Z,96131.49
2017-12-31T22:01:27.417Z,96133.11
2017-12-31T22:03:55.140Z,96138.11
2017-12-31T22:06:22.778Z,96136.42
2017-12-31T22:08:50.457Z,96138.06
2017-12-31T22:11:18.090Z,96144.64
2017-12-31T22:13:45.784Z,96133.16
2017-12-31T22:16:13.462Z,96146.57
2017-12-31T22:18:41.162Z,96152.30
2017-12-31T22:21:10.400Z,96155.95
2017-12-31T22:23:38.158Z,96152.00
2017-12-31T22:26:05.859Z,96159.09
2017-12-31T22:28:33.671Z,96162.45
2017-12-31T22:31:02.052Z,96159.55
2017-12-31T22:33:32.506Z,96171.22
2017-12-31T22:36:00.188Z,96170.30
2017-12-31T22:38:27.847Z,96170.62
2017-12-31T22:40:57.595Z,96170.16
2017-12-31T22:43:27.136Z,96164.31
2017-12-31T22:45:54.909Z,96171.80
2017-12-31T22:48:22.555Z,96172.17
2017-12-31T22:50:51.943Z,96164.20
2017-12-31T22:53:21.296Z,96167.52
2017-12-31T22:55:49.059Z,96168.83
2017-12-31T22:58:17.538Z,96163.92
2017-12-31T23:00:45.295Z,96165.57
2017-12-31T23:05:48.423Z,96159.89
2017-12-31T23:08:16.132Z,96141.16
2017-12-31T23:10:43.777Z,96148.34
2017-12-31T23:13:12.224Z,96155.59
2017-12-31T23:15:40.599Z,96139.72
2017-12-31T23:18:08.287Z,96132.58
2017-12-31T23:20:35.945Z,96149.33
2017-12-31T23:23:03.606Z,96132.98
2017-12-31T23:25:31.276Z,96139.98
2017-12-31T23:27:58.945Z,96148.75
2017-12-31T23:30:28.250Z,96140.36
2017-12-31T23:32:55.998Z,96147.04
2017-12-31T23:35:23.783Z,96141.13
2017-12-31T23:37:51.915Z,96149.05
2017-12-31T23:40:19.591Z,96149.09
2017-12-31T23:42:47.287Z,96145.41
2017-12-31T23:45:15.002Z,96143.75
2017-12-31T23:47:42.675Z,96143.33
2017-12-31T23:50:12.095Z,96141.67
2017-12-31T23:52:41.675Z,96144.98
2017-12-31T23:55:09.426Z,96125.23
2017-12-31T23:57:37.094Z,96139.80
